Etusivu
METAR-TAF:

METAR-TAF

Lentoasemat :

Chongqing, Kiina

Chongqing Jiangbein kansainvälinen lentoasema

Leveyspiiri: 29-31N, Pituuspiiri: 106-29E, korkeus merenpinnasta: 351 m

Tämänhetkinen sää

Tämä raportti tehtiin 1 tunti ja 1 minuuttia sitten, kello 09.00 UTC
Tuuli 6 kn pohjoisesta/koillisesta
Lämpötila 15°C
Kosteus 88%
Ilmanpaine 1019 hPa
Näkyvyys 10 km tai enemmän
Hajonneita pilviä 2600 ft:n korkeudessa

METAR: ZUCK 220900Z 02003MPS 9999 BKN026 15/13 Q1019 NOSIG

Aika: 18:01 (10:01 UTC)

Sääennuste

Tämä raportti tehtiin 6 tuntia ja 51 minuuttia sitten, kello 03.10 UTC
Ennuste voimassa 22. päivästä klo 06 UTC - 23. päivään klo 06 UTC
Tuuli 6 kn etelästä/kaakosta
Näkyvyys: 5000 m
Hajanaisia pilviä 3000 ft:n korkeudessa
utua

TAF: ZUCK 220310Z 2206/2306 15003MPS 5000 BR SCT030 TX18/2206Z TN15/2222Z

Säähavainnot ja -ennusteet yli 4000 lentoasemalta (METAR- ja TAF-raportit).

Käytössä olevat sääasemat on merkitty karttaan keltaisilla ja punaisilla pisteillä.

Aseta hiiri pisteen päälle nähdäksesi sääaseman nimen.

Klikkaa sitten nähdäksesi säähavainnot ja -ennusteet.

Kartan vaihtaminen: klikkaa mustalla rastilla varustettuja vihreitä pisteitä, niin voit zoomata sisään; viivalla varustettua vihreää pistettä, niin voit zoomata ulos tai vihreitä nuolia, niin pääset viereisille kartoille.


METAR-TAF: